Dammeron Valley, Utah
Current Conditions -  °F | °C
As of 4:55 PM on Wednesday 22 Oct 2014 (Local Time) from KSGU Reporting Station
Clear Clear  
Wind Chill: 79°   Ceiling: Unl
Heat Index: 79°   Visibility: 10mi
Dew Point: 34°   Wind: 7mph
Humidity: 20%   Direction: 270°W
Pressure: 30.04"   Gusts: NA
Location:  37.31°N, 113.66°W
Report Text: KSGU 222255Z AUTO 27006KT 10SM CLR 26/01 A3004 RMK AO1
Loading
Personal Weather Stations






























Interactive Weather Map
Tropical Storm Tracking
New forecast layout! Learn more

10-Day Weather Forecast

Advertisements
Track Severe Weather on mobile